sensor_id;sensor_type;location;lat;lon;timestamp;pressure;altitude;pressure_sealevel;temperature;humidity
30744;BME280;17486;46.738;7.622;2023-05-28T00:00:44;95192.00;;;20.12;49.89
30744;BME280;17486;46.738;7.622;2023-05-28T00:03:11;95212.88;;;20.25;49.69
30744;BME280;17486;46.738;7.622;2023-05-28T00:05:37;95210.66;;;20.20;49.82
30744;BME280;17486;46.738;7.622;2023-05-28T00:08:02;95204.25;;;20.13;49.96
30744;BME280;17486;46.738;7.622;2023-05-28T00:10:28;95193.13;;;20.09;50.14
30744;BME280;17486;46.738;7.622;2023-05-28T00:12:53;95206.34;;;20.19;49.88
30744;BME280;17486;46.738;7.622;2023-05-28T00:15:18;95205.50;;;20.18;49.93
30744;BME280;17486;46.738;7.622;2023-05-28T00:17:44;95192.00;;;20.12;49.56
30744;BME280;17486;46.738;7.622;2023-05-28T00:20:10;95199.69;;;20.15;49.61
30744;BME280;17486;46.738;7.622;2023-05-28T00:22:36;95197.28;;;20.12;49.56
30744;BME280;17486;46.738;7.622;2023-05-28T00:25:01;95172.53;;;19.93;49.70
30744;BME280;17486;46.738;7.622;2023-05-28T00:27:27;95193.50;;;19.95;49.63
30744;BME280;17486;46.738;7.622;2023-05-28T00:29:52;95193.75;;;19.82;49.87
30744;BME280;17486;46.738;7.622;2023-05-28T00:32:18;95204.81;;;19.76;50.12
30744;BME280;17486;46.738;7.622;2023-05-28T00:34:43;95197.44;;;19.69;50.01
30744;BME280;17486;46.738;7.622;2023-05-28T00:37:08;95198.69;;;19.65;50.20
30744;BME280;17486;46.738;7.622;2023-05-28T00:39:34;95176.13;;;19.51;50.22
30744;BME280;17486;46.738;7.622;2023-05-28T00:42:01;95198.91;;;19.62;50.31
30744;BME280;17486;46.738;7.622;2023-05-28T00:44:27;95179.56;;;19.52;50.29
30744;BME280;17486;46.738;7.622;2023-05-28T00:46:53;95190.31;;;19.60;50.35
30744;BME280;17486;46.738;7.622;2023-05-28T00:49:19;95196.84;;;19.56;50.54
30744;BME280;17486;46.738;7.622;2023-05-28T00:51:45;95187.91;;;19.47;50.52
30744;BME280;17486;46.738;7.622;2023-05-28T00:54:10;95197.09;;;19.53;50.33
30744;BME280;17486;46.738;7.622;2023-05-28T00:56:36;95195.69;;;19.49;50.38
30744;BME280;17486;46.738;7.622;2023-05-28T00:59:02;95175.88;;;19.33;50.59
30744;BME280;17486;46.738;7.622;2023-05-28T01:01:29;95176.88;;;19.32;50.61
30744;BME280;17486;46.738;7.622;2023-05-28T01:03:55;95172.63;;;19.20;50.70
30744;BME280;17486;46.738;7.622;2023-05-28T01:06:21;95192.72;;;19.32;50.79
30744;BME280;17486;46.738;7.622;2023-05-28T01:08:48;95184.00;;;19.20;50.99
30744;BME280;17486;46.738;7.622;2023-05-28T01:11:15;95193.47;;;19.23;50.84
30744;BME280;17486;46.738;7.622;2023-05-28T01:13:42;95191.38;;;19.17;51.13
30744;BME280;17486;46.738;7.622;2023-05-28T01:16:07;95188.28;;;19.12;51.41
30744;BME280;17486;46.738;7.622;2023-05-28T01:18:34;95190.75;;;19.03;51.49
30744;BME280;17486;46.738;7.622;2023-05-28T01:21:03;95186.63;;;18.89;51.63
30744;BME280;17486;46.738;7.622;2023-05-28T01:23:29;95195.13;;;18.82;51.73
30744;BME280;17486;46.738;7.622;2023-05-28T01:25:57;95196.03;;;18.71;52.35
30744;BME280;17486;46.738;7.622;2023-05-28T01:28:24;95194.84;;;18.64;52.48
30744;BME280;17486;46.738;7.622;2023-05-28T01:30:50;95196.53;;;18.65;52.50
30744;BME280;17486;46.738;7.622;2023-05-28T01:33:15;95183.03;;;18.58;52.56
30744;BME280;17486;46.738;7.622;2023-05-28T01:35:41;95192.94;;;18.66;52.70
30744;BME280;17486;46.738;7.622;2023-05-28T01:38:10;95177.06;;;18.56;52.60
30744;BME280;17486;46.738;7.622;2023-05-28T01:40:38;95195.94;;;18.61;52.61
30744;BME280;17486;46.738;7.622;2023-05-28T01:43:04;95188.47;;;18.45;52.65
30744;BME280;17486;46.738;7.622;2023-05-28T01:45:30;95189.09;;;18.37;53.20
30744;BME280;17486;46.738;7.622;2023-05-28T01:47:55;95147.56;;;18.09;53.20
30744;BME280;17486;46.738;7.622;2023-05-28T01:50:21;95181.22;;;18.26;53.44
30744;BME280;17486;46.738;7.622;2023-05-28T01:52:47;95186.16;;;18.19;53.61
30744;BME280;17486;46.738;7.622;2023-05-28T01:55:13;95182.72;;;18.19;53.65
30744;BME280;17486;46.738;7.622;2023-05-28T01:57:39;95172.91;;;18.21;53.60
30744;BME280;17486;46.738;7.622;2023-05-28T02:00:05;95196.47;;;18.22;53.76
30744;BME280;17486;46.738;7.622;2023-05-28T02:02:31;95184.53;;;18.18;53.69
30744;BME280;17486;46.738;7.622;2023-05-28T02:04:57;95185.13;;;18.11;53.77
30744;BME280;17486;46.738;7.622;2023-05-28T02:07:22;95168.13;;;17.92;54.07
30744;BME280;17486;46.738;7.622;2023-05-28T02:09:48;95181.44;;;18.02;54.05
30744;BME280;17486;46.738;7.622;2023-05-28T02:12:13;95177.50;;;17.96;54.36
30744;BME280;17486;46.738;7.622;2023-05-28T02:14:39;95182.41;;;17.89;54.47
30744;BME280;17486;46.738;7.622;2023-05-28T02:17:04;95175.22;;;17.80;54.67
30744;BME280;17486;46.738;7.622;2023-05-28T02:19:30;95180.59;;;17.79;54.86
30744;BME280;17486;46.738;7.622;2023-05-28T02:21:57;95169.75;;;17.72;55.04
30744;BME280;17486;46.738;7.622;2023-05-28T02:24:23;95178.22;;;17.76;55.07
30744;BME280;17486;46.738;7.622;2023-05-28T02:26:48;95178.22;;;17.76;55.27
30744;BME280;17486;46.738;7.622;2023-05-28T02:29:13;95166.28;;;17.71;55.13
30744;BME280;17486;46.738;7.622;2023-05-28T02:31:40;95181.69;;;17.76;55.29
30744;BME280;17486;46.738;7.622;2023-05-28T02:34:05;95171.28;;;17.74;55.06
30744;BME280;17486;46.738;7.622;2023-05-28T02:36:31;95177.75;;;17.82;55.07
30744;BME280;17486;46.738;7.622;2023-05-28T02:38:58;95169.59;;;17.85;55.17
30744;BME280;17486;46.738;7.622;2023-05-28T02:41:23;95167.44;;;17.79;55.18
30744;BME280;17486;46.738;7.622;2023-05-28T02:43:48;95147.41;;;17.66;55.10
30744;BME280;17486;46.738;7.622;2023-05-28T02:46:14;95164.94;;;17.77;55.21
30744;BME280;17486;46.738;7.622;2023-05-28T02:48:39;95160.78;;;17.74;55.42
30744;BME280;17486;46.738;7.622;2023-05-28T02:51:05;95162.06;;;17.80;55.38
30744;BME280;17486;46.738;7.622;2023-05-28T02:53:31;95163.75;;;17.81;55.17
30744;BME280;17486;46.738;7.622;2023-05-28T02:55:57;95147.16;;;17.69;54.84
30744;BME280;17486;46.738;7.622;2023-05-28T02:58:22;95165.56;;;17.81;55.22
30744;BME280;17486;46.738;7.622;2023-05-28T03:00:49;95164.81;;;17.79;55.29
30744;BME280;17486;46.738;7.622;2023-05-28T03:03:14;95158.28;;;17.73;55.12
30744;BME280;17486;46.738;7.622;2023-05-28T03:05:40;95169.63;;;17.73;55.11
30744;BME280;17486;46.738;7.622;2023-05-28T03:08:06;95141.06;;;17.57;55.09
30744;BME280;17486;46.738;7.622;2023-05-28T03:10:31;95165.44;;;17.71;55.13
30744;BME280;17486;46.738;7.622;2023-05-28T03:12:57;95169.03;;;17.70;55.10
30744;BME280;17486;46.738;7.622;2023-05-28T03:15:22;95170.81;;;17.69;55.39
30744;BME280;17486;46.738;7.622;2023-05-28T03:17:54;95169.19;;;17.57;55.18
30744;BME280;17486;46.738;7.622;2023-05-28T03:20:19;95152.44;;;17.47;55.35
30744;BME280;17486;46.738;7.622;2023-05-28T03:22:46;95168.22;;;17.58;55.42
30744;BME280;17486;46.738;7.622;2023-05-28T03:25:14;95168.31;;;17.56;55.44
30744;BME280;17486;46.738;7.622;2023-05-28T03:27:40;95172.75;;;17.56;55.34
30744;BME280;17486;46.738;7.622;2023-05-28T03:30:05;95165.94;;;17.53;55.45
30744;BME280;17486;46.738;7.622;2023-05-28T03:32:33;95173.00;;;17.53;55.42
30744;BME280;17486;46.738;7.622;2023-05-28T03:34:58;95159.84;;;17.42;55.14
30744;BME280;17486;46.738;7.622;2023-05-28T03:37:24;95174.69;;;17.43;55.75
30744;BME280;17486;46.738;7.622;2023-05-28T03:39:51;95169.63;;;17.39;55.65
30744;BME280;17486;46.738;7.622;2023-05-28T03:42:17;95170.63;;;17.38;55.72
30744;BME280;17486;46.738;7.622;2023-05-28T03:44:42;95172.53;;;17.36;55.64
30744;BME280;17486;46.738;7.622;2023-05-28T03:47:07;95177.06;;;17.34;55.63
30744;BME280;17486;46.738;7.622;2023-05-28T03:49:33;95180.66;;;17.33;55.57
30744;BME280;17486;46.738;7.622;2023-05-28T03:51:58;95169.41;;;17.31;55.70
30744;BME280;17486;46.738;7.622;2023-05-28T03:54:23;95175.41;;;17.33;55.69
30744;BME280;17486;46.738;7.622;2023-05-28T03:56:49;95171.22;;;17.31;55.60
30744;BME280;17486;46.738;7.622;2023-05-28T03:59:14;95169.41;;;17.31;55.67
30744;BME280;17486;46.738;7.622;2023-05-28T04:01:40;95167.84;;;17.29;55.66
30744;BME280;17486;46.738;7.622;2023-05-28T04:04:05;95159.03;;;17.30;55.67
30744;BME280;17486;46.738;7.622;2023-05-28T04:06:31;95173.94;;;17.29;55.73
30744;BME280;17486;46.738;7.622;2023-05-28T04:08:56;95170.72;;;17.26;55.82
30744;BME280;17486;46.738;7.622;2023-05-28T04:11:22;95169.41;;;17.20;55.62
30744;BME280;17486;46.738;7.622;2023-05-28T04:13:50;95183.28;;;17.22;55.80
30744;BME280;17486;46.738;7.622;2023-05-28T04:16:16;95182.44;;;17.21;55.92
30744;BME280;17486;46.738;7.622;2023-05-28T04:18:41;95188.78;;;17.19;55.68
30744;BME280;17486;46.738;7.622;2023-05-28T04:21:07;95179.22;;;17.18;55.69
30744;BME280;17486;46.738;7.622;2023-05-28T04:23:32;95184.59;;;17.16;55.84
30744;BME280;17486;46.738;7.622;2023-05-28T04:25:58;95184.69;;;17.15;56.01
30744;BME280;17486;46.738;7.622;2023-05-28T04:28:23;95187.31;;;17.15;55.75
30744;BME280;17486;46.738;7.622;2023-05-28T04:30:54;95176.34;;;17.10;55.91
30744;BME280;17486;46.738;7.622;2023-05-28T04:33:20;95178.84;;;17.11;55.88
30744;BME280;17486;46.738;7.622;2023-05-28T04:35:49;95191.63;;;17.16;55.95
30744;BME280;17486;46.738;7.622;2023-05-28T04:38:15;95170.59;;;17.04;55.97
30744;BME280;17486;46.738;7.622;2023-05-28T04:40:41;95192.22;;;17.19;56.02
30744;BME280;17486;46.738;7.622;2023-05-28T04:43:06;95205.25;;;17.21;55.83
30744;BME280;17486;46.738;7.622;2023-05-28T04:45:32;95192.47;;;17.16;55.92
30744;BME280;17486;46.738;7.622;2023-05-28T04:47:57;95203.34;;;17.23;55.60
30744;BME280;17486;46.738;7.622;2023-05-28T04:50:22;95197.34;;;17.21;55.63
30744;BME280;17486;46.738;7.622;2023-05-28T04:52:48;95195.81;;;17.18;55.57
30744;BME280;17486;46.738;7.622;2023-05-28T04:55:13;95217.44;;;17.22;56.01
30744;BME280;17486;46.738;7.622;2023-05-28T04:57:39;95215.75;;;17.21;55.99
30744;BME280;17486;46.738;7.622;2023-05-28T05:00:06;95211.56;;;17.18;55.90
30744;BME280;17486;46.738;7.622;2023-05-28T05:02:38;95216.69;;;17.20;55.73
30744;BME280;17486;46.738;7.622;2023-05-28T05:05:04;95218.16;;;17.24;55.89
30744;BME280;17486;46.738;7.622;2023-05-28T05:07:31;95215.53;;;17.24;56.29
30744;BME280;17486;46.738;7.622;2023-05-28T05:09:57;95213.38;;;17.29;56.20
30744;BME280;17486;46.738;7.622;2023-05-28T05:12:22;95218.28;;;17.34;56.08
30744;BME280;17486;46.738;7.622;2023-05-28T05:14:48;95215.19;;;17.40;55.86
30744;BME280;17486;46.738;7.622;2023-05-28T05:17:13;95216.50;;;17.46;55.77
30744;BME280;17486;46.738;7.622;2023-05-28T05:19:38;95212.66;;;17.50;55.88
30744;BME280;17486;46.738;7.622;2023-05-28T05:22:04;95186.50;;;17.37;55.62
30744;BME280;17486;46.738;7.622;2023-05-28T05:24:29;95215.56;;;17.58;55.28
30744;BME280;17486;46.738;7.622;2023-05-28T05:26:55;95207.66;;;17.58;55.29
30744;BME280;17486;46.738;7.622;2023-05-28T05:29:21;95202.97;;;17.62;55.26
30744;BME280;17486;46.738;7.622;2023-05-28T05:31:46;95214.09;;;17.65;55.13
30744;BME280;17486;46.738;7.622;2023-05-28T05:34:11;95208.97;;;17.64;55.05
30744;BME280;17486;46.738;7.622;2023-05-28T05:36:36;95222.34;;;17.72;54.97
30744;BME280;17486;46.738;7.622;2023-05-28T05:39:02;95217.81;;;17.74;55.04
30744;BME280;17486;46.738;7.622;2023-05-28T05:41:28;95226.28;;;17.78;55.12
30744;BME280;17486;46.738;7.622;2023-05-28T05:43:53;95207.66;;;17.69;55.07
30744;BME280;17486;46.738;7.622;2023-05-28T05:46:19;95225.84;;;17.72;55.12
30744;BME280;17486;46.738;7.622;2023-05-28T05:48:45;95220.31;;;17.76;55.32
30744;BME280;17486;46.738;7.622;2023-05-28T05:51:10;95229.03;;;17.76;55.06
30744;BME280;17486;46.738;7.622;2023-05-28T05:53:42;95218.38;;;17.78;54.95
30744;BME280;17486;46.738;7.622;2023-05-28T05:56:08;95206.22;;;17.77;55.13
30744;BME280;17486;46.738;7.622;2023-05-28T05:58:33;95223.41;;;17.92;54.96
30744;BME280;17486;46.738;7.622;2023-05-28T06:00:59;95209.78;;;17.98;55.01
30744;BME280;17486;46.738;7.622;2023-05-28T06:03:24;95201.41;;;18.04;54.87
30744;BME280;17486;46.738;7.622;2023-05-28T06:05:50;95183.72;;;17.95;55.00
30744;BME280;17486;46.738;7.622;2023-05-28T06:08:16;95218.00;;;18.16;54.96
30744;BME280;17486;46.738;7.622;2023-05-28T06:10:41;95213.34;;;18.20;54.79
30744;BME280;17486;46.738;7.622;2023-05-28T06:13:06;95213.56;;;18.17;54.80
30744;BME280;17486;46.738;7.622;2023-05-28T06:15:32;95179.06;;;17.99;54.61
30744;BME280;17486;46.738;7.622;2023-05-28T06:17:57;95212.41;;;18.21;54.83
30744;BME280;17486;46.738;7.622;2023-05-28T06:20:23;95213.56;;;18.28;54.89
30744;BME280;17486;46.738;7.622;2023-05-28T06:22:50;95217.38;;;18.35;54.79
30744;BME280;17486;46.738;7.622;2023-05-28T06:25:15;95216.03;;;18.41;54.90
30744;BME280;17486;46.738;7.622;2023-05-28T06:27:41;95211.22;;;18.46;54.78
30744;BME280;17486;46.738;7.622;2023-05-28T06:30:07;95216.00;;;18.52;54.74
30744;BME280;17486;46.738;7.622;2023-05-28T06:32:33;95211.75;;;18.61;54.84
30744;BME280;17486;46.738;7.622;2023-05-28T06:34:58;95218.19;;;18.68;54.24
30744;BME280;17486;46.738;7.622;2023-05-28T06:37:24;95215.75;;;18.77;54.42
30744;BME280;17486;46.738;7.622;2023-05-28T06:39:49;95212.22;;;18.87;54.43
30744;BME280;17486;46.738;7.622;2023-05-28T06:42:14;95220.03;;;18.89;54.39
30744;BME280;17486;46.738;7.622;2023-05-28T06:44:40;95211.66;;;18.84;54.05
30744;BME280;17486;46.738;7.622;2023-05-28T06:47:05;95210.50;;;18.77;54.68
30744;BME280;17486;46.738;7.622;2023-05-28T06:49:31;95208.56;;;18.79;54.85
30744;BME280;17486;46.738;7.622;2023-05-28T06:51:56;95203.75;;;18.84;54.82
30744;BME280;17486;46.738;7.622;2023-05-28T06:54:22;95204.56;;;18.96;54.87
30744;BME280;17486;46.738;7.622;2023-05-28T06:56:47;95202.94;;;19.04;54.37
30744;BME280;17486;46.738;7.622;2023-05-28T06:59:12;95207.44;;;19.14;54.12
30744;BME280;17486;46.738;7.622;2023-05-28T07:01:38;95203.06;;;19.24;54.00
30744;BME280;17486;46.738;7.622;2023-05-28T07:04:03;95198.94;;;19.31;53.88
30744;BME280;17486;46.738;7.622;2023-05-28T07:06:28;95199.09;;;19.39;53.59
30744;BME280;17486;46.738;7.622;2023-05-28T07:08:54;95213.25;;;19.38;53.58
30744;BME280;17486;46.738;7.622;2023-05-28T07:11:19;95203.66;;;19.37;53.45
30744;BME280;17486;46.738;7.622;2023-05-28T07:13:45;95206.75;;;19.43;53.55
30744;BME280;17486;46.738;7.622;2023-05-28T07:16:11;95194.84;;;19.48;53.65
30744;BME280;17486;46.738;7.622;2023-05-28T07:18:37;95204.34;;;19.61;53.22
30744;BME280;17486;46.738;7.622;2023-05-28T07:21:03;95204.09;;;19.64;52.77
30744;BME280;17486;46.738;7.622;2023-05-28T07:23:30;95184.75;;;19.63;52.94
30744;BME280;17486;46.738;7.622;2023-05-28T07:25:55;95202.72;;;19.79;52.81
30744;BME280;17486;46.738;7.622;2023-05-28T07:28:21;95205.50;;;19.78;52.51
30744;BME280;17486;46.738;7.622;2023-05-28T07:30:46;95197.34;;;19.81;52.46
30744;BME280;17486;46.738;7.622;2023-05-28T07:33:11;95203.06;;;19.86;53.10
30744;BME280;17486;46.738;7.622;2023-05-28T07:35:37;95199.31;;;19.88;53.25
30744;BME280;17486;46.738;7.622;2023-05-28T07:38:02;95197.09;;;19.94;53.13
30744;BME280;17486;46.738;7.622;2023-05-28T07:40:28;95198.25;;;20.01;53.22
30744;BME280;17486;46.738;7.622;2023-05-28T07:42:53;95197.16;;;20.03;52.73
30744;BME280;17486;46.738;7.622;2023-05-28T07:45:18;95198.41;;;20.09;52.80
30744;BME280;17486;46.738;7.622;2023-05-28T07:47:44;95200.38;;;20.17;52.87
30744;BME280;17486;46.738;7.622;2023-05-28T07:50:09;95191.91;;;20.23;52.89
30744;BME280;17486;46.738;7.622;2023-05-28T07:52:36;95199.56;;;20.36;53.43
30744;BME280;17486;46.738;7.622;2023-05-28T07:55:02;95186.66;;;20.43;53.41
30744;BME280;17486;46.738;7.622;2023-05-28T07:57:28;95190.94;;;20.53;52.79
30744;BME280;17486;46.738;7.622;2023-05-28T07:59:54;95192.06;;;20.61;52.69
30744;BME280;17486;46.738;7.622;2023-05-28T08:02:20;95167.31;;;20.52;52.29
30744;BME280;17486;46.738;7.622;2023-05-28T08:04:45;95157.16;;;20.47;52.33
30744;BME280;17486;46.738;7.622;2023-05-28T08:07:11;95181.50;;;20.61;52.67
30744;BME280;17486;46.738;7.622;2023-05-28T08:09:37;95172.31;;;20.55;52.22
30744;BME280;17486;46.738;7.622;2023-05-28T08:12:02;95173.00;;;20.57;52.46
30744;BME280;17486;46.738;7.622;2023-05-28T08:14:28;95176.75;;;20.64;53.03
30744;BME280;17486;46.738;7.622;2023-05-28T08:16:54;95179.13;;;20.67;52.10
30744;BME280;17486;46.738;7.622;2023-05-28T08:19:19;95178.88;;;20.70;52.20
30744;BME280;17486;46.738;7.622;2023-05-28T08:21:45;95181.38;;;20.82;52.26
30744;BME280;17486;46.738;7.622;2023-05-28T08:24:10;95147.44;;;20.77;51.58
30744;BME280;17486;46.738;7.622;2023-05-28T08:26:36;95175.47;;;21.08;51.47
30744;BME280;17486;46.738;7.622;2023-05-28T08:29:02;95165.84;;;21.16;51.05
30744;BME280;17486;46.738;7.622;2023-05-28T08:31:30;95167.09;;;21.22;51.07
30744;BME280;17486;46.738;7.622;2023-05-28T08:33:55;95164.81;;;21.37;51.26
30744;BME280;17486;46.738;7.622;2023-05-28T08:36:21;95162.13;;;21.47;50.65
30744;BME280;17486;46.738;7.622;2023-05-28T08:38:46;95166.84;;;21.53;50.24
30744;BME280;17486;46.738;7.622;2023-05-28T08:41:12;95159.50;;;21.57;50.59
30744;BME280;17486;46.738;7.622;2023-05-28T08:43:37;95152.63;;;21.64;50.02
30744;BME280;17486;46.738;7.622;2023-05-28T08:46:03;95163.19;;;21.74;49.80
30744;BME280;17486;46.738;7.622;2023-05-28T08:48:33;95150.03;;;21.82;50.03
30744;BME280;17486;46.738;7.622;2023-05-28T08:50:58;95108.59;;;21.63;50.44
30744;BME280;17486;46.738;7.622;2023-05-28T08:53:25;95147.50;;;22.08;50.96
30744;BME280;17486;46.738;7.622;2023-05-28T08:55:54;95143.19;;;22.25;50.59
30744;BME280;17486;46.738;7.622;2023-05-28T08:58:20;95128.78;;;22.38;49.55
30744;BME280;17486;46.738;7.622;2023-05-28T09:00:47;95139.66;;;22.52;49.30
30744;BME280;17486;46.738;7.622;2023-05-28T09:03:12;95140.56;;;22.61;48.59
30744;BME280;17486;46.738;7.622;2023-05-28T09:05:38;95136.31;;;22.68;46.91
30744;BME280;17486;46.738;7.622;2023-05-28T09:08:10;95134.03;;;22.74;45.87
30744;BME280;17486;46.738;7.622;2023-05-28T09:10:38;95128.41;;;22.77;45.40
30744;BME280;17486;46.738;7.622;2023-05-28T09:13:04;95126.44;;;22.79;45.14
30744;BME280;17486;46.738;7.622;2023-05-28T09:15:33;95132.56;;;22.79;45.21
30744;BME280;17486;46.738;7.622;2023-05-28T09:18:05;95134.78;;;22.84;45.53
30744;BME280;17486;46.738;7.622;2023-05-28T09:20:31;95123.56;;;22.90;45.14
30744;BME280;17486;46.738;7.622;2023-05-28T09:25:24;95125.31;;;23.08;44.35
30744;BME280;17486;46.738;7.622;2023-05-28T09:27:50;95120.16;;;23.24;45.28
30744;BME280;17486;46.738;7.622;2023-05-28T09:30:15;95108.44;;;23.43;45.16
30744;BME280;17486;46.738;7.622;2023-05-28T09:32:41;95111.72;;;23.63;44.81
30744;BME280;17486;46.738;7.622;2023-05-28T09:35:07;95084.13;;;23.56;44.18
30744;BME280;17486;46.738;7.622;2023-05-28T09:37:34;95102.41;;;23.67;44.38
30744;BME280;17486;46.738;7.622;2023-05-28T09:40:03;95102.78;;;23.73;45.15
30744;BME280;17486;46.738;7.622;2023-05-28T09:42:39;95091.31;;;23.72;45.67
30744;BME280;17486;46.738;7.622;2023-05-28T09:45:09;95108.63;;;23.84;44.67
30744;BME280;17486;46.738;7.622;2023-05-28T09:47:45;95096.31;;;23.83;43.95
30744;BME280;17486;46.738;7.622;2023-05-28T09:50:11;95100.16;;;23.89;44.24
30744;BME280;17486;46.738;7.622;2023-05-28T09:52:42;95102.53;;;23.92;44.07
30744;BME280;17486;46.738;7.622;2023-05-28T09:55:13;95095.56;;;24.08;44.28
30744;BME280;17486;46.738;7.622;2023-05-28T09:57:40;95098.75;;;24.28;44.71
30744;BME280;17486;46.738;7.622;2023-05-28T10:00:10;95092.44;;;24.45;44.76
30744;BME280;17486;46.738;7.622;2023-05-28T10:05:19;95098.16;;;24.67;42.72
30744;BME280;17486;46.738;7.622;2023-05-28T10:07:46;95084.66;;;24.60;43.19
30744;BME280;17486;46.738;7.622;2023-05-28T10:10:14;95090.50;;;24.72;42.45
30744;BME280;17486;46.738;7.622;2023-05-28T10:12:40;95087.00;;;24.72;42.53
30744;BME280;17486;46.738;7.622;2023-05-28T10:15:07;95065.72;;;24.63;42.54
30744;BME280;17486;46.738;7.622;2023-05-28T10:17:32;95087.16;;;24.78;41.75
30744;BME280;17486;46.738;7.622;2023-05-28T10:20:00;95084.97;;;24.82;41.39
30744;BME280;17486;46.738;7.622;2023-05-28T10:22:25;95086.47;;;24.85;41.10
30744;BME280;17486;46.738;7.622;2023-05-28T10:24:51;95081.31;;;24.91;41.38
30744;BME280;17486;46.738;7.622;2023-05-28T10:27:17;95086.59;;;25.08;41.16
30744;BME280;17486;46.738;7.622;2023-05-28T10:29:44;95080.22;;;25.25;41.32
30744;BME280;17486;46.738;7.622;2023-05-28T10:32:15;95052.31;;;25.21;41.06
30744;BME280;17486;46.738;7.622;2023-05-28T10:34:40;95078.19;;;25.44;40.58
30744;BME280;17486;46.738;7.622;2023-05-28T10:37:07;95079.34;;;25.49;39.95
30744;BME280;17486;46.738;7.622;2023-05-28T10:39:41;95063.53;;;25.48;39.18
30744;BME280;17486;46.738;7.622;2023-05-28T10:42:07;95076.16;;;25.54;39.26
30744;BME280;17486;46.738;7.622;2023-05-28T10:47:13;95068.00;;;25.56;38.28
30744;BME280;17486;46.738;7.622;2023-05-28T10:49:58;95056.84;;;25.60;38.74
30744;BME280;17486;46.738;7.622;2023-05-28T10:52:24;95064.91;;;25.75;37.97
30744;BME280;17486;46.738;7.622;2023-05-28T10:54:52;95063.34;;;25.89;37.58
30744;BME280;17486;46.738;7.622;2023-05-28T10:57:22;95059.94;;;26.04;36.78
30744;BME280;17486;46.738;7.622;2023-05-28T11:02:24;95062.06;;;26.31;36.26
30744;BME280;17486;46.738;7.622;2023-05-28T11:04:52;95062.19;;;26.38;36.14
30744;BME280;17486;46.738;7.622;2023-05-28T11:07:18;95053.28;;;26.46;36.01
30744;BME280;17486;46.738;7.622;2023-05-28T11:09:51;95057.25;;;26.50;35.45
30744;BME280;17486;46.738;7.622;2023-05-28T11:12:19;95047.72;;;26.56;35.54
30744;BME280;17486;46.738;7.622;2023-05-28T11:14:45;95027.56;;;26.53;35.37
30744;BME280;17486;46.738;7.622;2023-05-28T11:17:11;95054.09;;;26.70;35.23
30744;BME280;17486;46.738;7.622;2023-05-28T11:19:45;95050.72;;;26.76;34.58
30744;BME280;17486;46.738;7.622;2023-05-28T11:22:13;95026.91;;;26.74;33.76
30744;BME280;17486;46.738;7.622;2023-05-28T11:24:54;95044.13;;;27.02;33.16
30744;BME280;17486;46.738;7.622;2023-05-28T11:27:21;95034.38;;;27.24;32.22
30744;BME280;17486;46.738;7.622;2023-05-28T11:29:52;95020.53;;;27.35;32.87
30744;BME280;17486;46.738;7.622;2023-05-28T11:32:18;95028.59;;;27.50;32.71
30744;BME280;17486;46.738;7.622;2023-05-28T11:34:50;95017.97;;;27.42;32.62
30744;BME280;17486;46.738;7.622;2023-05-28T11:37:22;95033.00;;;27.43;32.23
30744;BME280;17486;46.738;7.622;2023-05-28T11:39:50;95025.19;;;27.41;31.66
30744;BME280;17486;46.738;7.622;2023-05-28T11:42:19;95007.56;;;27.32;31.96
30744;BME280;17486;46.738;7.622;2023-05-28T11:44:45;95019.03;;;27.41;31.96
30744;BME280;17486;46.738;7.622;2023-05-28T11:47:11;95012.00;;;27.40;31.69
30744;BME280;17486;46.738;7.622;2023-05-28T11:49:37;95017.63;;;27.45;32.31
30744;BME280;17486;46.738;7.622;2023-05-28T11:52:02;94979.66;;;27.35;32.21
30744;BME280;17486;46.738;7.622;2023-05-28T11:54:28;95001.28;;;27.70;32.09
30744;BME280;17486;46.738;7.622;2023-05-28T11:56:53;94999.81;;;27.89;31.07
30744;BME280;17486;46.738;7.622;2023-05-28T11:59:22;95004.09;;;28.05;30.71
30744;BME280;17486;46.738;7.622;2023-05-28T12:01:52;95009.72;;;28.10;30.64
30744;BME280;17486;46.738;7.622;2023-05-28T12:04:22;94995.63;;;28.01;30.12
30744;BME280;17486;46.738;7.622;2023-05-28T12:06:53;94994.06;;;28.07;30.04
30744;BME280;17486;46.738;7.622;2023-05-28T12:09:18;95000.47;;;28.12;29.63
30744;BME280;17486;46.738;7.622;2023-05-28T12:12:01;94989.72;;;28.06;29.86
30744;BME280;17486;46.738;7.622;2023-05-28T12:14:26;94993.66;;;28.10;30.06
30744;BME280;17486;46.738;7.622;2023-05-28T12:16:51;94999.91;;;28.17;29.43
30744;BME280;17486;46.738;7.622;2023-05-28T12:19:17;94989.47;;;28.22;30.04
30744;BME280;17486;46.738;7.622;2023-05-28T12:21:43;94994.53;;;28.39;29.72
30744;BME280;17486;46.738;7.622;2023-05-28T12:24:15;94990.38;;;28.58;29.04
30744;BME280;17486;46.738;7.622;2023-05-28T12:26:41;94974.34;;;28.65;28.45
30744;BME280;17486;46.738;7.622;2023-05-28T12:29:07;94964.06;;;28.61;28.18
30744;BME280;17486;46.738;7.622;2023-05-28T12:31:32;94977.94;;;28.72;28.19
30744;BME280;17486;46.738;7.622;2023-05-28T12:33:58;94970.94;;;28.71;28.00
30744;BME280;17486;46.738;7.622;2023-05-28T12:36:24;94965.97;;;28.68;28.24
30744;BME280;17486;46.738;7.622;2023-05-28T12:38:49;94966.59;;;28.70;28.94
30744;BME280;17486;46.738;7.622;2023-05-28T12:41:15;94967.84;;;28.74;28.94
30744;BME280;17486;46.738;7.622;2023-05-28T12:43:40;94961.25;;;28.70;28.06
30744;BME280;17486;46.738;7.622;2023-05-28T12:46:06;94972.59;;;28.72;27.43
30744;BME280;17486;46.738;7.622;2023-05-28T12:48:31;94955.97;;;28.83;27.30
30744;BME280;17486;46.738;7.622;2023-05-28T12:50:56;94956.91;;;29.04;26.14
30744;BME280;17486;46.738;7.622;2023-05-28T12:53:22;94924.72;;;28.90;25.76
30744;BME280;17486;46.738;7.622;2023-05-28T12:55:47;94952.81;;;29.08;26.53
30744;BME280;17486;46.738;7.622;2023-05-28T12:58:12;94954.25;;;29.10;27.62
30744;BME280;17486;46.738;7.622;2023-05-28T13:00:38;94955.50;;;29.15;28.60
30744;BME280;17486;46.738;7.622;2023-05-28T13:03:03;94937.38;;;29.10;28.13
30744;BME280;17486;46.738;7.622;2023-05-28T13:05:29;94923.34;;;29.08;26.98